Time,TemperatureF,DewpointF,PressureIn,WindDirection,WindDirectionDegrees,WindSpeedMPH,WindSpeedGustMPH,Humidity,HourlyPrecipIn,Conditions,Clouds,dailyrainin,SolarRadiationWatts/m^2,SoftwareType,DateUTC
2013-08-03 00:11:00,55.0,52.0,29.99,SW,228,4.0,7.0,90,0.00,,,0.00,0,weatherlink.com 1.10,2013-08-03 07:11:00,
2013-08-03 00:27:00,55.1,52.0,29.98,WSW,239,3.0,5.0,90,0.00,,,0.00,0,weatherlink.com 1.10,2013-08-03 07:27:00,
2013-08-03 00:42:00,55.2,52.0,29.98,South,171,1.0,5.0,90,0.00,,,0.00,0,weatherlink.com 1.10,2013-08-03 07:42:00,
2013-08-03 00:57:00,55.1,52.0,29.98,SW,225,2.0,6.0,90,0.00,,,0.00,0,weatherlink.com 1.10,2013-08-03 07:57:00,
2013-08-03 01:12:00,55.1,52.0,29.98,WSW,243,3.0,8.0,90,0.00,,,0.00,0,weatherlink.com 1.10,2013-08-03 08:12:00,
2013-08-03 01:27:00,55.0,52.0,29.98,WSW,247,5.0,8.0,90,0.00,,,0.00,0,weatherlink.com 1.10,2013-08-03 08:27:00,
2013-08-03 01:42:00,54.8,52.0,29.98,SW,219,4.0,8.0,90,0.00,,,0.00,0,weatherlink.com 1.10,2013-08-03 08:42:00,
2013-08-03 01:56:00,54.8,52.0,29.98,WSW,239,2.0,6.0,90,0.00,,,0.00,0,weatherlink.com 1.10,2013-08-03 08:56:00,
2013-08-03 02:12:00,54.8,52.0,29.98,SW,215,0.0,6.0,90,0.00,,,0.00,0,weatherlink.com 1.10,2013-08-03 09:12:00,
2013-08-03 02:27:00,54.8,52.0,29.98,SSW,206,4.0,7.0,91,0.00,,,0.00,0,weatherlink.com 1.10,2013-08-03 09:27:00,
2013-08-03 02:41:00,54.7,52.0,29.98,SSW,206,2.0,5.0,91,0.00,,,0.00,0,weatherlink.com 1.10,2013-08-03 09:41:00,
2013-08-03 02:57:00,54.6,52.0,29.98,WSW,256,0.0,9.0,91,0.00,,,0.00,0,weatherlink.com 1.10,2013-08-03 09:57:00,
2013-08-03 03:12:00,54.6,52.0,29.97,WSW,239,4.0,7.0,91,0.00,,,0.00,0,weatherlink.com 1.10,2013-08-03 10:12:00,
2013-08-03 03:27:00,54.6,52.0,29.98,SW,236,3.0,11.0,91,0.00,,,0.00,0,weatherlink.com 1.10,2013-08-03 10:27:00,
2013-08-03 03:42:00,54.6,52.0,29.98,South,175,6.0,9.0,91,0.00,,,0.00,0,weatherlink.com 1.10,2013-08-03 10:42:00,
2013-08-03 03:57:00,54.4,52.0,29.98,South,179,1.0,7.0,91,0.00,,,0.00,0,weatherlink.com 1.10,2013-08-03 10:57:00,
2013-08-03 04:12:00,54.3,52.0,29.98,SSW,195,3.0,7.0,92,0.00,,,0.00,0,weatherlink.com 1.10,2013-08-03 11:12:00,
2013-08-03 04:27:00,54.2,52.0,29.98,SW,224,3.0,9.0,92,0.00,,,0.00,0,weatherlink.com 1.10,2013-08-03 11:27:00,
2013-08-03 04:42:00,54.1,52.0,29.98,SW,219,2.0,9.0,92,0.00,,,0.00,0,weatherlink.com 1.10,2013-08-03 11:42:00,
2013-08-03 04:57:00,53.9,52.0,29.98,SSW,212,1.0,7.0,92,0.00,,,0.00,0,weatherlink.com 1.10,2013-08-03 11:57:00,
2013-08-03 05:12:00,53.9,52.0,29.98,SSE,168,9.0,9.0,92,0.00,,,0.00,0,weatherlink.com 1.10,2013-08-03 12:12:00,
2013-08-03 05:42:00,53.9,52.0,29.98,SSW,204,3.0,10.0,92,0.00,,,0.00,0,weatherlink.com 1.10,2013-08-03 12:42:00,
2013-08-03 05:57:00,53.9,52.0,29.98,SW,226,4.0,10.0,92,0.00,,,0.00,0,weatherlink.com 1.10,2013-08-03 12:57:00,
2013-08-03 06:12:00,54.0,52.0,29.99,SW,217,5.0,9.0,92,0.00,,,0.00,0,weatherlink.com 1.10,2013-08-03 13:12:00,
2013-08-03 06:27:00,54.0,52.0,29.99,SW,216,3.0,11.0,92,0.00,,,0.00,0,weatherlink.com 1.10,2013-08-03 13:27:00,
2013-08-03 06:42:00,54.0,52.0,29.99,SSW,198,7.0,8.0,92,0.00,,,0.00,7,weatherlink.com 1.10,2013-08-03 13:42:00,
2013-08-03 06:57:00,53.9,52.0,30.00,SW,218,8.0,10.0,92,0.00,,,0.00,12,weatherlink.com 1.10,2013-08-03 13:57:00,
2013-08-03 07:12:00,53.9,52.0,30.00,SSW,210,2.0,7.0,92,0.00,,,0.00,16,weatherlink.com 1.10,2013-08-03 14:12:00,
2013-08-03 07:27:00,53.9,52.0,30.01,SW,231,5.0,11.0,92,0.00,,,0.00,26,weatherlink.com 1.10,2013-08-03 14:27:00,
2013-08-03 07:42:00,54.0,52.0,30.01,WSW,250,4.0,10.0,92,0.00,,,0.00,35,weatherlink.com 1.10,2013-08-03 14:42:00,
2013-08-03 07:57:00,54.1,52.0,30.01,SW,224,3.0,7.0,92,0.00,,,0.00,51,weatherlink.com 1.10,2013-08-03 14:57:00,
2013-08-03 08:12:00,54.4,52.0,30.02,WSW,257,4.0,9.0,92,0.00,,,0.00,54,weatherlink.com 1.10,2013-08-03 15:12:00,
2013-08-03 08:27:00,54.7,53.0,30.02,SW,218,3.0,6.0,92,0.00,,,0.00,77,weatherlink.com 1.10,2013-08-03 15:27:00,
2013-08-03 08:42:00,54.9,53.0,30.02,SSW,206,5.0,7.0,92,0.00,,,0.00,81,weatherlink.com 1.10,2013-08-03 15:42:00,
2013-08-03 08:57:00,55.2,53.0,30.02,SSW,213,5.0,8.0,91,0.00,,,0.00,160,weatherlink.com 1.10,2013-08-03 15:57:00,
2013-08-03 09:13:00,55.6,53.0,30.02,SW,225,4.0,7.0,90,0.00,,,0.00,207,weatherlink.com 1.10,2013-08-03 16:13:00,
2013-08-03 09:28:00,56.2,53.0,30.02,South,179,6.0,9.0,89,0.00,,,0.00,237,weatherlink.com 1.10,2013-08-03 16:28:00,
2013-08-03 09:43:00,56.6,53.0,30.02,South,181,4.0,8.0,88,0.00,,,0.00,246,weatherlink.com 1.10,2013-08-03 16:43:00,
2013-08-03 09:58:00,57.1,53.0,30.02,SW,233,2.0,10.0,87,0.00,,,0.00,276,weatherlink.com 1.10,2013-08-03 16:58:00,
2013-08-03 10:12:00,57.8,53.0,30.02,SW,223,4.0,8.0,85,0.00,,,0.00,329,weatherlink.com 1.10,2013-08-03 17:12:00,
2013-08-03 10:28:00,58.5,53.0,30.02,SSW,200,5.0,7.0,82,0.00,,,0.00,290,weatherlink.com 1.10,2013-08-03 17:28:00,
2013-08-03 10:43:00,58.9,53.0,30.02,SW,216,1.0,8.0,82,0.00,,,0.00,436,weatherlink.com 1.10,2013-08-03 17:43:00,
2013-08-03 10:58:00,59.4,54.0,30.02,SSE,156,0.0,9.0,81,0.00,,,0.00,404,weatherlink.com 1.10,2013-08-03 17:58:00,
2013-08-03 11:13:00,59.8,53.0,30.02,SSW,193,4.0,9.0,79,0.00,,,0.00,499,weatherlink.com 1.10,2013-08-03 18:13:00,
2013-08-03 11:28:00,62.0,54.0,30.02,WSW,251,3.0,10.0,76,0.00,,,0.00,524,weatherlink.com 1.10,2013-08-03 18:28:00,
2013-08-03 11:43:00,61.9,54.0,30.02,SW,229,6.0,10.0,76,0.00,,,0.00,1076,weatherlink.com 1.10,2013-08-03 18:43:00,
2013-08-03 11:58:00,63.7,55.0,30.02,SW,235,7.0,14.0,72,0.00,,,0.00,659,weatherlink.com 1.10,2013-08-03 18:58:00,
2013-08-03 12:13:00,62.4,54.0,30.02,SSW,195,9.0,11.0,74,0.00,,,0.00,534,weatherlink.com 1.10,2013-08-03 19:13:00,
2013-08-03 12:28:00,63.1,55.0,30.01,South,173,7.0,12.0,74,0.00,,,0.00,1014,weatherlink.com 1.10,2013-08-03 19:28:00,
2013-08-03 12:43:00,65.0,55.0,30.01,SW,220,5.0,10.0,70,0.00,,,0.00,918,weatherlink.com 1.10,2013-08-03 19:43:00,
2013-08-03 12:58:00,65.6,55.0,30.01,SW,217,8.0,12.0,68,0.00,,,0.00,912,weatherlink.com 1.10,2013-08-03 19:58:00,
2013-08-03 13:13:00,65.6,55.0,30.01,SW,219,1.0,10.0,68,0.00,,,0.00,909,weatherlink.com 1.10,2013-08-03 20:13:00,
2013-08-03 13:28:00,65.7,55.0,30.01,SSW,212,4.0,13.0,68,0.00,,,0.00,907,weatherlink.com 1.10,2013-08-03 20:28:00,
2013-08-03 13:43:00,65.6,54.0,30.00,SW,231,10.0,14.0,67,0.00,,,0.00,905,weatherlink.com 1.10,2013-08-03 20:43:00,
2013-08-03 13:58:00,65.3,54.0,30.00,North,356,9.0,13.0,68,0.00,,,0.00,902,weatherlink.com 1.10,2013-08-03 20:58:00,
2013-08-03 14:13:00,65.5,55.0,30.00,SW,220,6.0,9.0,69,0.00,,,0.00,891,weatherlink.com 1.10,2013-08-03 21:13:00,
2013-08-03 14:28:00,65.2,54.0,30.00,West,279,3.0,11.0,68,0.00,,,0.00,877,weatherlink.com 1.10,2013-08-03 21:28:00,
2013-08-03 14:43:00,65.6,55.0,30.00,West,262,3.0,12.0,68,0.00,,,0.00,865,weatherlink.com 1.10,2013-08-03 21:43:00,
2013-08-03 14:58:00,65.9,55.0,29.99,South,189,9.0,13.0,67,0.00,,,0.00,846,weatherlink.com 1.10,2013-08-03 21:58:00,
2013-08-03 15:13:00,64.8,55.0,29.99,WSW,241,2.0,16.0,70,0.00,,,0.00,821,weatherlink.com 1.10,2013-08-03 22:13:00,
2013-08-03 15:28:00,64.1,55.0,29.99,North,6,3.0,12.0,71,0.00,,,0.00,798,weatherlink.com 1.10,2013-08-03 22:28:00,
2013-08-03 15:43:00,63.2,54.0,29.99,SW,217,8.0,13.0,72,0.00,,,0.00,768,weatherlink.com 1.10,2013-08-03 22:43:00,
2013-08-03 15:58:00,63.2,54.0,29.99,WSW,257,3.0,11.0,73,0.00,,,0.00,737,weatherlink.com 1.10,2013-08-03 22:58:00,
2013-08-03 16:13:00,62.6,54.0,29.98,WSW,244,8.0,14.0,74,0.00,,,0.00,701,weatherlink.com 1.10,2013-08-03 23:13:00,
2013-08-03 16:28:00,62.6,54.0,29.98,SW,234,12.0,16.0,74,0.00,,,0.00,663,weatherlink.com 1.10,2013-08-03 23:28:00,
2013-08-03 16:43:00,62.4,54.0,29.98,SW,231,8.0,13.0,75,0.00,,,0.00,622,weatherlink.com 1.10,2013-08-03 23:43:00,
2013-08-03 16:58:00,63.0,55.0,29.97,WSW,254,5.0,12.0,74,0.00,,,0.00,580,weatherlink.com 1.10,2013-08-03 23:58:00,
2013-08-03 17:13:00,63.0,55.0,29.97,WSW,258,3.0,11.0,75,0.00,,,0.00,561,weatherlink.com 1.10,2013-08-04 00:13:00,
2013-08-03 17:28:00,62.2,54.0,29.97,WSW,239,4.0,16.0,75,0.00,,,0.00,513,weatherlink.com 1.10,2013-08-04 00:28:00,
2013-08-03 17:43:00,61.6,54.0,29.96,WSW,241,5.0,12.0,76,0.00,,,0.00,485,weatherlink.com 1.10,2013-08-04 00:43:00,
2013-08-03 17:58:00,60.6,54.0,29.96,North,352,10.0,13.0,78,0.00,,,0.00,292,weatherlink.com 1.10,2013-08-04 00:58:00,
2013-08-03 18:13:00,59.5,53.0,29.97,WNW,295,5.0,11.0,80,0.00,,,0.00,367,weatherlink.com 1.10,2013-08-04 01:13:00,
2013-08-03 18:28:00,58.5,53.0,29.96,WSW,239,2.0,12.0,82,0.00,,,0.00,98,weatherlink.com 1.10,2013-08-04 01:28:00,
2013-08-03 18:43:00,57.8,53.0,29.96,SSW,211,4.0,11.0,83,0.00,,,0.00,60,weatherlink.com 1.10,2013-08-04 01:43:00,
2013-08-03 18:58:00,57.0,53.0,29.96,WSW,250,6.0,11.0,85,0.00,,,0.00,67,weatherlink.com 1.10,2013-08-04 01:58:00,
2013-08-03 19:13:00,56.3,52.0,29.96,WNW,289,0.0,13.0,86,0.00,,,0.00,40,weatherlink.com 1.10,2013-08-04 02:13:00,
2013-08-03 19:28:00,55.9,52.0,29.96,WSW,246,3.0,9.0,87,0.00,,,0.00,33,weatherlink.com 1.10,2013-08-04 02:28:00,
2013-08-03 19:43:00,55.3,52.0,29.96,SSW,202,4.0,12.0,88,0.00,,,0.00,23,weatherlink.com 1.10,2013-08-04 02:43:00,
2013-08-03 19:58:00,54.9,52.0,29.97,NNW,345,7.0,10.0,88,0.00,,,0.00,11,weatherlink.com 1.10,2013-08-04 02:58:00,
2013-08-03 20:13:00,54.7,52.0,29.97,WSW,245,2.0,11.0,89,0.00,,,0.00,5,weatherlink.com 1.10,2013-08-04 03:13:00,
2013-08-03 20:28:00,54.5,51.0,29.97,South,190,1.0,9.0,89,0.00,,,0.00,0,weatherlink.com 1.10,2013-08-04 03:28:00,
2013-08-03 20:44:00,54.3,52.0,29.98,SSW,212,4.0,9.0,90,0.00,,,0.00,0,weatherlink.com 1.10,2013-08-04 03:44:00,
2013-08-03 20:59:00,54.3,52.0,29.98,WSW,258,5.0,15.0,90,0.00,,,0.00,0,weatherlink.com 1.10,2013-08-04 03:59:00,
2013-08-03 21:14:00,54.0,52.0,29.98,SSW,200,5.0,12.0,91,0.00,,,0.00,0,weatherlink.com 1.10,2013-08-04 04:14:00,
2013-08-03 21:28:00,53.6,51.0,29.99,SW,219,3.0,11.0,91,0.00,,,0.00,0,weatherlink.com 1.10,2013-08-04 04:28:00,
2013-08-03 21:44:00,53.2,51.0,30.00,SW,236,5.0,12.0,91,0.00,,,0.00,0,weatherlink.com 1.10,2013-08-04 04:44:00,
2013-08-03 21:59:00,53.1,51.0,30.00,WSW,244,0.0,10.0,92,0.00,,,0.00,0,weatherlink.com 1.10,2013-08-04 04:59:00,
2013-08-03 22:14:00,53.0,51.0,30.01,South,185,0.0,7.0,92,0.00,,,0.00,0,weatherlink.com 1.10,2013-08-04 05:14:00,
2013-08-03 22:29:00,53.3,51.0,30.01,SW,222,10.0,14.0,92,0.00,,,0.00,0,weatherlink.com 1.10,2013-08-04 05:29:00,
2013-08-03 22:44:00,53.5,52.0,30.01,WNW,303,1.0,8.0,93,0.00,,,0.00,0,weatherlink.com 1.10,2013-08-04 05:44:00,
2013-08-03 22:59:00,53.5,52.0,30.01,SSW,204,5.0,11.0,93,0.00,,,0.00,0,weatherlink.com 1.10,2013-08-04 05:59:00,
2013-08-03 23:14:00,53.3,51.0,30.01,SSW,204,6.0,10.0,93,0.00,,,0.00,0,weatherlink.com 1.10,2013-08-04 06:14:00,
2013-08-03 23:29:00,53.5,52.0,30.01,West,278,4.0,10.0,93,0.00,,,0.00,0,weatherlink.com 1.10,2013-08-04 06:29:00,
2013-08-03 23:44:00,53.3,51.0,30.01,West,261,8.0,12.0,93,0.00,,,0.00,0,weatherlink.com 1.10,2013-08-04 06:44:00,
2013-08-03 23:59:00,53.4,52.0,30.01,SSW,196,5.0,12.0,93,0.00,,,0.00,0,weatherlink.com 1.10,2013-08-04 06:59:00,